Time;durP1;ratioP1;P1;durP2;ratioP2;P2;SDS_P1;SDS_P2;PMS_P1;PMS_P2;Temp;Humidity;BMP_temperature;BMP_pressure;BME280_temperature;BME280_humidity;BME280_pressure;Samples;Min_cycle;Max_cycle;Signal;HPM_P1;HPM_P2
2021/07/17 00:02:12;;;;;;;;;15.00;14.00;;;;;17.13;65.02;102167.34;5034269;28;45553;-65
2021/07/17 00:04:38;;;;;;;;;16.67;14.00;;;;;17.08;64.80;102169.53;5034178;28;45524;-66
2021/07/17 00:07:03;;;;;;;;;17.33;14.33;;;;;17.05;65.10;102160.00;5034221;28;45490;-63
2021/07/17 00:09:29;;;;;;;;;18.00;16.00;;;;;17.02;65.12;102160.25;5034288;28;45985;-65
2021/07/17 00:11:54;;;;;;;;;16.67;13.00;;;;;16.98;64.98;102170.25;5034355;28;45518;-65
2021/07/17 00:14:20;;;;;;;;;16.67;15.67;;;;;16.92;65.30;102165.44;5034324;28;45385;-65
2021/07/17 00:16:46;;;;;;;;;20.00;16.33;;;;;16.90;65.45;102163.81;5033058;28;45538;-64
2021/07/17 00:19:11;;;;;;;;;11.67;11.67;;;;;16.90;65.46;102172.66;5033318;28;46263;-65
2021/07/17 00:21:37;;;;;;;;;15.67;13.00;;;;;16.85;65.57;102166.81;5033643;28;45721;-65
2021/07/17 00:24:03;;;;;;;;;13.00;13.00;;;;;16.84;65.82;102170.47;5034140;28;45501;-65
2021/07/17 00:26:28;;;;;;;;;17.67;12.33;;;;;16.82;66.10;102169.72;5034028;28;45399;-64
2021/07/17 00:28:54;;;;;;;;;18.00;13.00;;;;;16.79;66.07;102175.28;5032556;28;46374;-64
2021/07/17 00:31:19;;;;;;;;;21.33;15.67;;;;;16.77;66.33;102172.72;5032352;28;45411;-66
2021/07/17 00:33:44;;;;;;;;;19.00;15.67;;;;;16.74;66.11;102166.84;5033371;28;45223;-65
2021/07/17 00:36:10;;;;;;;;;19.67;17.33;;;;;16.72;65.82;102174.06;5033882;28;45333;-65
2021/07/17 00:38:35;;;;;;;;;22.33;15.00;;;;;16.69;66.05;102163.69;5034020;28;45450;-65
2021/07/17 00:41:01;;;;;;;;;15.67;13.67;;;;;16.65;66.45;102165.75;5032667;28;45547;-65
2021/07/17 00:43:26;;;;;;;;;19.67;15.00;;;;;16.63;66.55;102171.16;5050027;28;45411;-65
2021/07/17 00:45:52;;;;;;;;;17.00;14.33;;;;;16.59;66.92;102172.38;5037241;28;45532;-65
2021/07/17 00:48:17;;;;;;;;;16.67;14.67;;;;;16.56;66.98;102167.28;5036639;28;45700;-65
2021/07/17 00:50:43;;;;;;;;;20.33;16.67;;;;;16.52;66.86;102167.66;5037124;28;45491;-65
2021/07/17 00:53:08;;;;;;;;;19.00;15.33;;;;;16.46;67.40;102163.66;5037794;28;45226;-64
2021/07/17 00:55:38;;;;;;;;;14.33;11.67;;;;;16.43;67.30;102164.72;5037678;28;45311;-66
2021/07/17 00:58:05;;;;;;;;;17.33;14.33;;;;;16.39;67.27;102168.59;5036618;28;46361;-65
2021/07/17 01:00:30;;;;;;;;;19.00;15.00;;;;;16.37;67.25;102165.19;5036958;28;45355;-65
2021/07/17 01:03:03;;;;;;;;;17.67;14.33;;;;;16.35;67.07;102172.44;5037067;28;45575;-66
2021/07/17 01:05:28;;;;;;;;;13.00;11.00;;;;;16.33;67.43;102174.34;5037021;28;45472;-65
2021/07/17 01:07:54;;;;;;;;;18.33;14.67;;;;;16.32;67.41;102170.00;5036842;28;46466;-65
2021/07/17 01:10:20;;;;;;;;;21.00;16.00;;;;;16.32;67.58;102173.50;5037361;28;45417;-64
2021/07/17 01:12:47;;;;;;;;;22.00;18.67;;;;;16.29;67.43;102168.44;5036688;28;46763;-65
2021/07/17 01:15:12;;;;;;;;;17.33;16.00;;;;;16.28;67.63;102172.06;5036739;28;45355;-63
2021/07/17 01:17:38;;;;;;;;;12.00;12.00;;;;;16.27;67.69;102164.19;5036034;28;45425;-65
2021/07/17 01:20:09;;;;;;;;;15.00;12.33;;;;;16.25;67.58;102164.31;5036384;28;45454;-66
2021/07/17 01:22:36;;;;;;;;;20.33;17.33;;;;;16.24;68.19;102167.97;5037502;28;45697;-65
2021/07/17 01:25:16;;;;;;;;;21.00;16.67;;;;;16.20;68.58;102177.06;5036380;28;45566;-66
2021/07/17 01:27:42;;;;;;;;;16.33;14.00;;;;;16.14;68.60;102174.91;5036255;28;45497;-66
2021/07/17 01:30:11;;;;;;;;;15.67;12.33;;;;;16.12;68.85;102174.16;5035024;28;45331;-65
2021/07/17 01:32:36;;;;;;;;;16.33;12.67;;;;;16.07;68.49;102168.38;5036415;28;45499;-63
2021/07/17 01:35:02;;;;;;;;;17.33;15.33;;;;;16.05;68.28;102164.97;5036862;28;45312;-65
2021/07/17 01:37:28;;;;;;;;;21.00;19.00;;;;;16.02;69.02;102166.03;5036980;28;45520;-64
2021/07/17 01:39:53;;;;;;;;;24.67;20.00;;;;;16.04;68.54;102163.31;5035968;28;45321;-64
2021/07/17 01:42:18;;;;;;;;;18.67;16.00;;;;;16.00;68.79;102160.88;5036424;28;45592;-66
2021/07/17 01:44:45;;;;;;;;;19.00;15.67;;;;;15.96;69.02;102159.41;5036105;28;45638;-66
2021/07/17 01:47:14;;;;;;;;;20.67;17.67;;;;;15.94;69.20;102158.66;5035872;28;46169;-66
2021/07/17 01:49:41;;;;;;;;;19.67;17.33;;;;;15.90;68.92;102159.03;5036750;28;45355;-65
2021/07/17 01:52:08;;;;;;;;;19.33;18.00;;;;;15.84;69.19;102153.22;5036460;28;45436;-65
2021/07/17 01:54:35;;;;;;;;;17.67;13.33;;;;;15.87;69.37;102159.22;5032974;28;45186;-64
2021/07/17 01:57:05;;;;;;;;;20.00;16.00;;;;;15.82;69.68;102164.88;5035910;28;45435;-64
2021/07/17 01:59:45;;;;;;;;;22.33;16.67;;;;;15.76;70.31;102160.00;5035881;28;45456;-65
2021/07/17 02:02:11;;;;;;;;;13.00;12.33;;;;;15.71;70.10;102155.06;5035640;28;45416;-65
2021/07/17 02:04:37;;;;;;;;;22.00;16.67;;;;;15.70;69.97;102156.00;5032099;28;45293;-65
2021/07/17 02:07:04;;;;;;;;;25.00;16.00;;;;;15.70;70.03;102160.44;5036051;28;45488;-65
2021/07/17 02:09:30;;;;;;;;;16.00;15.00;;;;;15.68;70.51;102168.50;5036020;28;45363;-66
2021/07/17 02:11:55;;;;;;;;;24.00;17.67;;;;;15.64;70.19;102165.22;5036249;28;45866;-64
2021/07/17 02:14:20;;;;;;;;;20.00;17.00;;;;;15.63;70.45;102154.75;5035113;28;45833;-65
2021/07/17 02:16:46;;;;;;;;;17.33;14.00;;;;;15.63;70.25;102158.28;5035808;28;45598;-65
2021/07/17 02:19:22;;;;;;;;;24.00;19.67;;;;;15.61;70.28;102156.69;5035409;28;45376;-64
2021/07/17 02:21:52;;;;;;;;;29.33;19.00;;;;;15.58;70.67;102160.41;5035696;28;45511;-64
2021/07/17 02:24:18;;;;;;;;;19.33;16.33;;;;;15.54;70.70;102156.25;5035290;28;45415;-65
2021/07/17 02:26:47;;;;;;;;;27.67;18.33;;;;;15.51;70.89;102151.22;5034081;28;46613;-65
2021/07/17 02:29:14;;;;;;;;;16.00;14.00;;;;;15.47;70.86;102155.03;5035321;28;45578;-64
2021/07/17 02:31:43;;;;;;;;;23.67;19.67;;;;;15.44;71.14;102155.25;5035874;28;45467;-64
2021/07/17 02:34:10;;;;;;;;;23.67;17.33;;;;;15.42;70.82;102152.72;5035398;28;45569;-64
2021/07/17 02:36:37;;;;;;;;;22.00;18.67;;;;;15.42;71.55;102146.59;5035238;28;46056;-64
2021/07/17 02:39:04;;;;;;;;;24.00;20.00;;;;;15.39;71.31;102146.81;5035146;28;45407;-65
2021/07/17 02:41:29;;;;;;;;;23.00;18.67;;;;;15.40;71.48;102148.47;5035605;28;45444;-66
2021/07/17 02:43:55;;;;;;;;;19.67;17.00;;;;;15.37;71.22;102159.31;5035242;28;45443;-65
2021/07/17 02:46:21;;;;;;;;;24.67;21.67;;;;;15.34;71.33;102160.38;5035920;28;46699;-65
2021/07/17 02:48:47;;;;;;;;;32.00;28.33;;;;;15.30;72.41;102159.75;5035163;28;45300;-65
2021/07/17 02:51:12;;;;;;;;;28.67;26.00;;;;;15.27;72.68;102157.31;5035760;28;45352;-66
2021/07/17 02:53:38;;;;;;;;;23.67;18.67;;;;;15.23;72.11;102147.06;5027971;28;45286;-65
2021/07/17 02:56:04;;;;;;;;;26.33;24.33;;;;;15.15;72.28;102142.31;5035271;28;45507;-65
2021/07/17 02:58:30;;;;;;;;;27.00;15.00;;;;;15.11;72.79;102132.91;5035489;28;45437;-65
2021/07/17 03:00:56;;;;;;;;;28.67;22.00;;;;;15.10;72.71;102141.78;5035077;28;45573;-65
2021/07/17 03:03:23;;;;;;;;;24.33;18.33;;;;;15.10;72.74;102153.22;5034909;28;45462;-65
2021/07/17 03:05:48;;;;;;;;;26.00;20.67;;;;;15.07;72.69;102152.59;5034560;28;46560;-65
2021/07/17 03:08:17;;;;;;;;;22.33;17.33;;;;;15.06;72.99;102153.53;5033931;28;45428;-65
2021/07/17 03:10:43;;;;;;;;;28.33;20.00;;;;;15.05;73.38;102157.13;5035845;28;45605;-66
2021/07/17 03:13:09;;;;;;;;;20.33;17.33;;;;;15.05;72.88;102158.00;5034473;28;45853;-65
2021/07/17 03:15:34;;;;;;;;;24.33;20.33;;;;;15.01;73.49;102160.00;5033119;28;48451;-65
2021/07/17 03:18:00;;;;;;;;;21.00;15.67;;;;;15.00;72.98;102158.31;5034371;28;45418;-66
2021/07/17 03:20:26;;;;;;;;;29.00;19.33;;;;;14.98;73.12;102152.31;5035398;28;45304;-65
2021/07/17 03:22:51;;;;;;;;;25.33;20.67;;;;;15.01;72.86;102160.00;5034667;28;45343;-65
2021/07/17 03:25:17;;;;;;;;;18.33;16.33;;;;;15.01;72.78;102154.72;5035016;28;45445;-64
2021/07/17 03:27:42;;;;;;;;;24.00;19.33;;;;;15.01;73.27;102152.06;5034130;28;45886;-65
2021/07/17 03:30:08;;;;;;;;;21.67;19.00;;;;;15.00;73.09;102150.38;5034706;28;45482;-64
2021/07/17 03:32:34;;;;;;;;;17.33;13.67;;;;;14.95;73.54;102160.44;5034561;28;45321;-64
2021/07/17 03:35:01;;;;;;;;;23.00;17.67;;;;;14.93;74.14;102159.72;5034949;28;46205;-65
2021/07/17 03:37:26;;;;;;;;;29.67;19.00;;;;;14.93;73.14;102162.38;5034711;28;45241;-66
2021/07/17 03:39:52;;;;;;;;;23.67;20.33;;;;;14.92;73.21;102158.03;5034396;28;45368;-67
2021/07/17 03:42:17;;;;;;;;;24.00;20.33;;;;;14.92;73.11;102149.22;5034450;28;45209;-65
2021/07/17 03:44:42;;;;;;;;;20.00;18.00;;;;;14.91;73.12;102145.75;5033735;28;45466;-64
2021/07/17 03:47:08;;;;;;;;;25.00;21.67;;;;;14.94;73.66;102152.63;5018341;28;45548;-66
2021/07/17 03:49:33;;;;;;;;;23.67;21.00;;;;;14.89;73.60;102147.63;5035511;28;45518;-64
2021/07/17 03:51:58;;;;;;;;;20.33;17.00;;;;;14.86;73.43;102147.84;5034377;28;45411;-64
2021/07/17 03:54:25;;;;;;;;;21.00;19.00;;;;;14.85;73.70;102146.16;5034654;28;46683;-64
2021/07/17 03:56:51;;;;;;;;;25.33;18.33;;;;;14.83;73.46;102148.09;5034047;28;45558;-65
2021/07/17 03:59:16;;;;;;;;;24.33;19.33;;;;;14.84;73.49;102147.09;5034959;28;45565;-64
2021/07/17 04:01:42;;;;;;;;;21.33;20.33;;;;;14.83;73.64;102150.72;5035306;28;45373;-65
2021/07/17 04:04:09;;;;;;;;;31.67;21.67;;;;;14.81;73.92;102153.47;5033049;28;47550;-65
2021/07/17 04:06:35;;;;;;;;;22.67;17.33;;;;;14.80;74.12;102158.88;5034445;28;45519;-65
2021/07/17 04:09:02;;;;;;;;;24.67;22.33;;;;;14.79;73.89;102160.66;5034515;28;45463;-65
2021/07/17 04:11:27;;;;;;;;;25.00;19.00;;;;;14.77;73.98;102159.91;5034100;28;45447;-64
2021/07/17 04:13:52;;;;;;;;;24.67;19.33;;;;;14.77;73.98;102162.56;5034472;28;45433;-64
2021/07/17 04:16:18;;;;;;;;;25.67;20.33;;;;;14.79;73.78;102157.16;5034929;28;45397;-67
2021/07/17 04:18:43;;;;;;;;;20.67;16.33;;;;;14.78;73.78;102161.63;5033109;28;45507;-65
2021/07/17 04:21:11;;;;;;;;;24.33;20.67;;;;;14.77;74.03;102159.09;5034242;28;45407;-64
2021/07/17 04:23:37;;;;;;;;;30.33;23.67;;;;;14.77;74.34;102167.03;5034073;28;45430;-64
2021/07/17 04:26:02;;;;;;;;;24.33;22.00;;;;;14.75;73.99;102156.56;5034162;28;45269;-64
2021/07/17 04:28:28;;;;;;;;;30.33;25.33;;;;;14.77;74.14;102161.72;5035005;28;45462;-64
2021/07/17 04:30:53;;;;;;;;;30.67;24.33;;;;;14.79;74.09;102159.81;5034329;28;45458;-65
2021/07/17 04:33:19;;;;;;;;;24.00;20.33;;;;;14.79;73.95;102154.50;5034214;28;46165;-65
2021/07/17 04:35:44;;;;;;;;;22.67;19.67;;;;;14.81;74.15;102160.56;5034108;28;45326;-65
2021/07/17 04:38:09;;;;;;;;;20.67;20.00;;;;;14.85;73.77;102157.59;5034447;28;45346;-65
2021/07/17 04:40:35;;;;;;;;;27.33;19.33;;;;;14.91;73.98;102164.25;5034405;28;45205;-64
2021/07/17 04:43:00;;;;;;;;;24.00;20.33;;;;;14.98;73.69;102164.66;5033567;28;46610;-64
2021/07/17 04:45:25;;;;;;;;;28.00;23.00;;;;;15.01;73.63;102169.75;5033972;28;45427;-65
2021/07/17 04:47:51;;;;;;;;;23.67;20.33;;;;;15.01;73.27;102173.25;5034392;28;45619;-66
2021/07/17 04:50:16;;;;;;;;;21.00;20.00;;;;;15.02;73.41;102167.00;5050147;28;45482;-63
2021/07/17 04:52:41;;;;;;;;;26.67;19.67;;;;;15.04;73.31;102179.25;5034133;28;46785;-66
2021/07/17 04:55:07;;;;;;;;;25.33;18.00;;;;;15.06;73.45;102182.66;5034050;28;45493;-64
2021/07/17 04:57:33;;;;;;;;;29.33;20.00;;;;;15.06;73.48;102177.38;5033990;28;45559;-64
2021/07/17 04:59:58;;;;;;;;;27.33;21.00;;;;;15.09;73.54;102183.28;5034155;28;45450;-65
2021/07/17 05:02:23;;;;;;;;;22.67;14.67;;;;;15.12;73.09;102182.22;5033180;28;46254;-65
2021/07/17 05:04:49;;;;;;;;;24.00;22.00;;;;;15.14;73.34;102185.59;5033839;28;45373;-64
2021/07/17 05:07:14;;;;;;;;;25.33;21.00;;;;;15.18;73.07;102187.94;5034580;28;45350;-65
2021/07/17 05:09:39;;;;;;;;;22.33;16.67;;;;;15.22;73.23;102193.88;5033291;28;45471;-64
2021/07/17 05:12:05;;;;;;;;;18.33;18.00;;;;;15.26;73.08;102184.75;5049755;28;45730;-65
2021/07/17 05:14:30;;;;;;;;;21.67;21.00;;;;;15.31;73.02;102182.63;5033959;28;45539;-65
2021/07/17 05:16:56;;;;;;;;;25.33;21.67;;;;;15.39;72.76;102184.72;5034042;28;45467;-65
2021/07/17 05:19:21;;;;;;;;;27.00;19.67;;;;;15.46;72.84;102179.81;5034215;28;45415;-65
2021/07/17 05:21:46;;;;;;;;;21.33;20.00;;;;;15.53;72.66;102186.38;5033539;28;46453;-64
2021/07/17 05:24:12;;;;;;;;;26.33;19.67;;;;;15.59;72.35;102188.56;5033228;28;45505;-64
2021/07/17 05:26:37;;;;;;;;;21.00;19.67;;;;;15.62;72.33;102187.50;5033697;28;45376;-65
2021/07/17 05:29:02;;;;;;;;;24.67;21.00;;;;;15.64;72.15;102181.13;5033609;28;45454;-65
2021/07/17 05:31:28;;;;;;;;;24.00;20.00;;;;;15.68;72.16;102182.63;5037331;28;45508;-64
2021/07/17 05:33:53;;;;;;;;;27.00;23.33;;;;;15.68;72.04;102174.69;5036974;28;45273;-65
2021/07/17 05:36:19;;;;;;;;;26.33;20.00;;;;;15.70;72.12;102181.63;5037290;28;45426;-65
2021/07/17 05:38:44;;;;;;;;;27.00;21.00;;;;;15.68;71.82;102182.63;5034348;28;45523;-64
2021/07/17 05:41:09;;;;;;;;;25.67;22.33;;;;;15.67;71.88;102180.94;5036194;28;45343;-65
2021/07/17 05:43:35;;;;;;;;;24.00;19.67;;;;;15.70;71.78;102181.63;5036855;28;45361;-66
2021/07/17 05:46:00;;;;;;;;;36.00;22.67;;;;;15.70;71.84;102186.94;5036790;28;45380;-65
2021/07/17 05:48:25;;;;;;;;;23.00;22.33;;;;;15.71;72.02;102183.34;5036333;28;45439;-65
2021/07/17 05:50:51;;;;;;;;;20.67;18.67;;;;;15.74;71.95;102183.13;5036045;28;46250;-66
2021/07/17 05:53:16;;;;;;;;;31.67;23.67;;;;;15.75;71.76;102184.81;5035892;28;45315;-65
2021/07/17 05:55:42;;;;;;;;;21.67;20.67;;;;;15.74;71.78;102185.78;5037665;28;45388;-65
2021/07/17 05:58:07;;;;;;;;;25.33;22.67;;;;;15.74;72.10;102183.13;5038547;28;45367;-65
2021/07/17 06:00:34;;;;;;;;;26.67;22.00;;;;;15.77;71.80;102182.91;5037619;28;45492;-66
2021/07/17 06:03:00;;;;;;;;;25.67;23.67;;;;;15.78;72.23;102189.88;5037143;28;45374;-65
2021/07/17 06:05:25;;;;;;;;;19.00;13.00;;;;;15.75;71.99;102190.97;5037615;28;45395;-65
2021/07/17 06:07:50;;;;;;;;;26.00;23.00;;;;;15.68;71.68;102187.91;5037071;28;45367;-65
2021/07/17 06:10:16;;;;;;;;;27.00;20.00;;;;;15.66;71.93;102184.53;5037059;28;45642;-65
2021/07/17 06:12:41;;;;;;;;;30.67;26.33;;;;;15.67;71.93;102182.72;5036125;28;45419;-66
2021/07/17 06:15:07;;;;;;;;;27.33;24.00;;;;;15.70;71.90;102177.19;5036448;28;45533;-65
2021/07/17 06:17:32;;;;;;;;;26.67;22.67;;;;;15.78;71.94;102184.59;5036450;28;45487;-66
2021/07/17 06:19:58;;;;;;;;;25.33;20.00;;;;;15.85;71.73;102183.19;5036039;28;46091;-64
2021/07/17 06:22:23;;;;;;;;;28.33;23.33;;;;;15.90;71.82;102186.34;5036514;28;45522;-65
2021/07/17 06:24:49;;;;;;;;;27.67;23.00;;;;;15.95;71.68;102186.84;5035951;28;45230;-64
2021/07/17 06:27:14;;;;;;;;;23.33;19.00;;;;;15.99;71.70;102192.78;5035728;28;45267;-65
2021/07/17 06:29:39;;;;;;;;;33.33;25.00;;;;;16.05;71.78;102192.34;5035867;28;45318;-65
2021/07/17 06:32:05;;;;;;;;;30.33;24.00;;;;;16.13;71.46;102197.06;5035779;28;45404;-65
2021/07/17 06:34:31;;;;;;;;;24.67;24.67;;;;;16.17;71.29;102201.19;5036613;28;45332;-66
2021/07/17 06:36:57;;;;;;;;;21.67;18.00;;;;;16.23;71.01;102200.72;5035822;28;45578;-65
2021/07/17 06:39:22;;;;;;;;;32.67;25.33;;;;;16.28;70.84;102209.19;5035642;28;46312;-65
2021/07/17 06:41:48;;;;;;;;;24.00;21.00;;;;;16.27;70.96;102202.19;5034288;28;45518;-64
2021/07/17 06:44:13;;;;;;;;;29.67;24.00;;;;;16.25;70.70;102213.88;5035854;28;45502;-64
2021/07/17 06:46:38;;;;;;;;;23.50;21.00;;;;;16.24;70.96;102207.72;5036259;28;45369;-65
2021/07/17 06:49:04;;;;;;;;;27.67;23.00;;;;;16.27;70.58;102207.47;5034398;28;46307;-64
2021/07/17 06:51:31;;;;;;;;;33.33;27.33;;;;;16.29;70.79;102202.06;5034392;28;45313;-65
2021/07/17 06:53:57;;;;;;;;;30.67;26.33;;;;;16.36;70.87;102200.66;5035593;28;45676;-65
2021/07/17 06:56:22;;;;;;;;;28.00;24.00;;;;;16.42;70.82;102200.16;5035571;28;45546;-65
2021/07/17 06:58:47;;;;;;;;;24.67;23.67;;;;;16.52;70.67;102202.97;5035566;28;47237;-66
2021/07/17 07:01:13;;;;;;;;;32.00;28.00;;;;;16.61;70.55;102199.63;5036144;28;45396;-65
2021/07/17 07:03:38;;;;;;;;;31.00;24.67;;;;;16.71;70.27;102204.22;5035883;28;45553;-66
2021/07/17 07:06:04;;;;;;;;;20.00;19.67;;;;;16.83;70.18;102204.09;5035365;28;45480;-65
2021/07/17 07:08:31;;;;;;;;;29.00;22.00;;;;;16.96;69.98;102198.72;5035507;28;45359;-64
2021/07/17 07:10:56;;;;;;;;;33.67;28.00;;;;;17.15;69.54;102202.56;5035374;28;45305;-65
2021/07/17 07:13:21;;;;;;;;;30.67;25.00;;;;;17.30;69.28;102206.66;5035947;28;45457;-64
2021/07/17 07:15:47;;;;;;;;;29.00;25.00;;;;;17.41;68.46;102208.50;5033664;28;45562;-66
2021/07/17 07:18:13;;;;;;;;;26.00;22.67;;;;;17.44;68.06;102210.06;5035232;28;46532;-63
2021/07/17 07:20:39;;;;;;;;;25.67;21.33;;;;;17.38;67.99;102213.19;5034859;28;45968;-65
2021/07/17 07:23:04;;;;;;;;;28.67;25.00;;;;;17.34;68.43;102217.06;5035249;28;45513;-65
2021/07/17 07:25:30;;;;;;;;;25.33;22.00;;;;;17.35;68.39;102222.25;5034332;28;45534;-66
2021/07/17 07:27:55;;;;;;;;;30.67;25.67;;;;;17.38;68.51;102218.50;5034946;28;45281;-64
2021/07/17 07:30:21;;;;;;;;;29.33;25.00;;;;;17.43;68.35;102226.97;5034799;28;45450;-65
2021/07/17 07:32:48;;;;;;;;;28.00;24.67;;;;;17.47;68.27;102228.41;5034635;28;45399;-64
2021/07/17 07:35:14;;;;;;;;;33.00;24.33;;;;;17.49;68.22;102231.78;5034504;28;45329;-65
2021/07/17 07:37:39;;;;;;;;;24.33;23.00;;;;;17.51;68.36;102243.13;5035465;28;47235;-65
2021/07/17 07:40:05;;;;;;;;;33.67;25.67;;;;;17.55;68.31;102241.91;5034697;28;45498;-64
2021/07/17 07:42:30;;;;;;;;;26.00;23.67;;;;;17.58;68.16;102240.81;5034856;28;47270;-64
2021/07/17 07:44:56;;;;;;;;;28.00;23.33;;;;;17.59;68.04;102243.38;5035070;28;45415;-64
2021/07/17 07:47:23;;;;;;;;;24.33;19.67;;;;;17.60;68.10;102234.41;5034659;28;46101;-65
2021/07/17 07:49:48;;;;;;;;;26.67;23.33;;;;;17.69;68.20;102239.97;5034841;28;45444;-66
2021/07/17 07:52:14;;;;;;;;;37.33;25.33;;;;;17.77;68.02;102241.03;5033707;28;45428;-64
2021/07/17 07:54:40;;;;;;;;;27.67;22.00;;;;;17.88;67.68;102247.28;5034447;28;45432;-65
2021/07/17 07:57:06;;;;;;;;;29.67;24.00;;;;;17.94;67.76;102253.00;5034350;28;47132;-66
2021/07/17 07:59:31;;;;;;;;;27.00;23.00;;;;;18.02;67.70;102254.16;5034074;28;45674;-64
2021/07/17 08:01:57;;;;;;;;;32.67;22.67;;;;;18.06;67.31;102260.91;5034937;28;45379;-65
2021/07/17 08:04:22;;;;;;;;;23.67;22.33;;;;;18.09;67.73;102260.66;5034720;28;45766;-64
2021/07/17 08:06:48;;;;;;;;;30.33;24.00;;;;;18.07;67.29;102262.59;5034208;28;45648;-65
2021/07/17 08:09:13;;;;;;;;;26.00;20.67;;;;;18.04;67.06;102262.88;5034563;28;45418;-66
2021/07/17 08:11:38;;;;;;;;;28.33;22.67;;;;;18.00;67.35;102253.47;5033262;28;45270;-64
2021/07/17 08:14:04;;;;;;;;;28.00;22.67;;;;;18.00;67.48;102248.97;5034764;28;45477;-64
2021/07/17 08:16:30;;;;;;;;;29.67;20.67;;;;;18.08;67.56;102237.72;5034428;28;45348;-64
2021/07/17 08:18:55;;;;;;;;;25.00;21.33;;;;;18.21;67.50;102242.84;5033341;28;45364;-64
2021/07/17 08:21:20;;;;;;;;;25.00;22.00;;;;;18.32;67.51;102240.16;5034031;28;45573;-65
2021/07/17 08:23:46;;;;;;;;;27.00;23.67;;;;;18.43;67.43;102242.75;5034306;28;45443;-65
2021/07/17 08:26:12;;;;;;;;;30.67;24.67;;;;;18.57;67.04;102243.41;5034366;28;46252;-65
2021/07/17 08:28:37;;;;;;;;;25.67;20.67;;;;;18.69;66.57;102246.84;5030531;28;45514;-65
2021/07/17 08:31:03;;;;;;;;;29.33;21.33;;;;;18.76;66.26;102243.53;5034995;28;45552;-65
2021/07/17 08:33:28;;;;;;;;;27.33;25.33;;;;;18.84;66.28;102240.22;5034444;28;45515;-64
2021/07/17 08:35:53;;;;;;;;;20.67;20.67;;;;;18.95;66.10;102236.66;5034685;28;47434;-64
2021/07/17 08:38:19;;;;;;;;;23.33;15.33;;;;;19.06;65.69;102236.56;5034452;28;45420;-64
2021/07/17 08:40:52;;;;;;;;;25.33;22.33;;;;;19.16;65.44;102239.25;5034360;28;45371;-65
2021/07/17 08:43:17;;;;;;;;;28.67;24.67;;;;;19.27;65.14;102241.00;5034185;28;45265;-65
2021/07/17 08:45:43;;;;;;;;;29.67;26.00;;;;;19.26;64.61;102234.81;5033584;28;45420;-65
2021/07/17 08:48:10;;;;;;;;;27.67;22.33;;;;;19.26;64.83;102244.66;5033343;28;45575;-64
2021/07/17 08:50:37;;;;;;;;;23.33;22.00;;;;;19.23;64.89;102251.09;5033025;28;46035;-63
2021/07/17 08:53:03;;;;;;;;;26.67;19.67;;;;;19.21;65.10;102247.69;5033809;28;45543;-64
2021/07/17 08:55:28;;;;;;;;;28.00;23.67;;;;;19.28;64.59;102251.53;5034130;28;46241;-65
2021/07/17 08:57:55;;;;;;;;;24.33;20.33;;;;;19.33;64.86;102244.94;5033439;28;45424;-65
2021/07/17 09:00:23;;;;;;;;;27.00;23.67;;;;;19.41;64.61;102245.97;5034006;28;45497;-64
2021/07/17 09:02:52;;;;;;;;;30.00;22.00;;;;;19.53;63.92;102240.53;5033897;28;45439;-64
2021/07/17 09:05:21;;;;;;;;;28.00;24.33;;;;;19.63;63.88;102228.91;5034751;28;47251;-66
2021/07/17 09:07:47;;;;;;;;;23.33;21.33;;;;;19.76;63.64;102234.00;5030908;28;45398;-65
2021/07/17 09:10:37;;;;;;;;;29.00;20.00;;;;;19.87;62.78;102235.72;5037544;28;45293;-64
2021/07/17 09:13:07;;;;;;;;;25.00;20.33;;;;;19.89;62.88;102228.44;5036958;28;45387;-65
2021/07/17 09:15:34;;;;;;;;;30.00;23.00;;;;;20.04;62.84;102228.00;5036453;28;47159;-64
2021/07/17 09:17:59;;;;;;;;;28.33;21.00;;;;;20.18;62.67;102224.09;5036743;28;45471;-65
2021/07/17 09:20:24;;;;;;;;;26.33;23.67;;;;;20.27;62.39;102232.06;5037350;28;45602;-65
2021/07/17 09:22:58;;;;;;;;;20.00;18.67;;;;;20.35;61.93;102233.19;5037232;28;45400;-65
2021/07/17 09:25:23;;;;;;;;;28.33;23.00;;;;;20.35;61.44;102222.53;5035643;28;46034;-64
2021/07/17 09:27:49;;;;;;;;;26.00;24.00;;;;;20.38;61.78;102227.56;5036769;28;45471;-64
2021/07/17 09:30:26;;;;;;;;;24.00;19.00;;;;;20.53;61.48;102223.47;5036743;28;45486;-64
2021/07/17 09:33:02;;;;;;;;;28.00;22.00;;;;;20.73;60.81;102218.13;5036948;28;45438;-64
2021/07/17 09:35:28;;;;;;;;;24.67;21.00;;;;;20.97;61.13;102214.13;5035885;28;45739;-65
2021/07/17 09:37:55;;;;;;;;;27.33;20.67;;;;;21.22;59.49;102218.78;5036986;28;45394;-66
2021/07/17 09:40:21;;;;;;;;;21.33;16.00;;;;;21.38;59.52;102217.28;5037265;28;45518;-65
2021/07/17 09:42:47;;;;;;;;;21.67;19.67;;;;;21.45;58.52;102217.56;5036369;28;45600;-64
2021/07/17 09:45:31;;;;;;;;;26.67;22.67;;;;;21.40;59.20;102208.13;5035855;28;45791;-64
2021/07/17 09:47:56;;;;;;;;;29.33;22.67;;;;;21.30;58.53;102209.19;5036618;28;45207;-65
2021/07/17 09:50:21;;;;;;;;;24.00;19.33;;;;;21.21;59.40;102214.44;5036883;28;45401;-65
2021/07/17 09:52:47;;;;;;;;;19.67;18.33;;;;;21.14;58.90;102217.84;5036945;28;45590;-64
2021/07/17 09:55:16;;;;;;;;;26.67;17.00;;;;;21.03;57.68;102221.53;5036991;28;46054;-64
2021/07/17 09:57:42;;;;;;;;;22.67;19.33;;;;;20.92;58.50;102214.56;5036311;28;45368;-67
2021/07/17 10:00:12;;;;;;;;;20.00;18.67;;;;;20.92;58.87;102218.06;5036212;28;45402;-65
2021/07/17 10:02:39;;;;;;;;;25.33;19.33;;;;;20.88;57.69;102227.34;5032285;28;45582;-64
2021/07/17 10:05:15;;;;;;;;;18.33;16.67;;;;;20.78;58.15;102223.88;5030382;28;46490;-65
2021/07/17 10:07:41;;;;;;;;;21.67;18.33;;;;;20.69;58.10;102216.69;5037212;28;45391;-64
2021/07/17 10:10:07;;;;;;;;;17.67;16.67;;;;;20.68;58.71;102225.69;5036386;28;45335;-65
2021/07/17 10:12:34;;;;;;;;;23.67;20.67;;;;;20.69;59.23;102217.56;5035907;28;45445;-65
2021/07/17 10:15:02;;;;;;;;;24.00;22.67;;;;;20.72;58.74;102225.31;5035613;28;47126;-65
2021/07/17 10:17:39;;;;;;;;;29.33;19.67;;;;;20.70;58.65;102232.59;5036050;28;45200;-65
2021/07/17 10:20:11;;;;;;;;;27.00;23.00;;;;;20.60;59.15;102235.28;5031564;28;45379;-65
2021/07/17 10:22:37;;;;;;;;;28.00;21.00;;;;;20.57;59.26;102229.38;5036489;28;45222;-64
2021/07/17 10:25:04;;;;;;;;;26.67;23.67;;;;;20.54;58.77;102227.84;5042605;28;46579;-66
2021/07/17 10:27:31;;;;;;;;;27.67;20.33;;;;;20.56;59.32;102223.22;5032044;28;45860;-64
2021/07/17 10:29:57;;;;;;;;;20.33;17.33;;;;;20.60;59.95;102227.28;5035653;28;49190;-64
2021/07/17 10:32:22;;;;;;;;;21.33;17.33;;;;;20.64;58.91;102221.63;5036013;28;47434;-66
2021/07/17 10:34:48;;;;;;;;;24.67;21.00;;;;;20.65;59.38;102220.66;5035530;28;45522;-63
2021/07/17 10:37:18;;;;;;;;;22.00;20.00;;;;;20.72;59.51;102213.75;5035406;28;45439;-65
2021/07/17 10:39:49;;;;;;;;;22.33;19.00;;;;;20.81;59.42;102207.56;5033450;28;45428;-64
2021/07/17 10:42:22;;;;;;;;;17.00;14.33;;;;;20.88;59.41;102211.31;5029506;28;45369;-65
2021/07/17 10:44:54;;;;;;;;;21.67;19.67;;;;;20.97;59.56;102208.78;5035165;28;45428;-65
2021/07/17 10:47:20;;;;;;;;;28.00;24.33;;;;;21.03;59.13;102198.34;5034808;28;45538;-65
2021/07/17 10:49:48;;;;;;;;;25.67;20.67;;;;;21.07;58.08;102197.06;5035805;28;45471;-63
2021/07/17 10:52:13;;;;;;;;;26.00;21.33;;;;;21.07;58.83;102204.25;5035599;28;45513;-63
2021/07/17 10:54:39;;;;;;;;;23.33;19.00;;;;;21.11;58.29;102192.28;5033978;28;45428;-64
2021/07/17 10:57:06;;;;;;;;;25.33;21.67;;;;;21.12;58.39;102199.31;5035203;28;45294;-64
2021/07/17 10:59:31;;;;;;;;;26.00;20.33;;;;;21.15;57.84;102199.00;5035429;28;45505;-65
2021/07/17 11:01:57;;;;;;;;;23.00;18.67;;;;;21.14;57.63;102204.50;5020013;28;45264;-66
2021/07/17 11:04:45;;;;;;;;;23.67;18.33;;;;;21.15;58.33;102201.66;5035580;28;46513;-65
2021/07/17 11:07:17;;;;;;;;;24.00;23.00;;;;;21.16;57.98;102194.47;5035693;28;45487;-65